Connexion

22Km

22 Km FORES TRAIL du 07/07/18 (Réelle 22)
Rang Dossard Nom Prénom Temps Cat Rang Cat Ecart Ecart Cat Club Vitesse Km/h Temps au Km
1 22132 VERBRIGGHE Norbert 01:49:49 SEM 1 00:00:00 00:00:00 FOULEES LOONOISES 12,020 05:00
2 22212 ROELS PASCAL 01:53:12 V1M 1 00:03:23 00:00:00 TEAM OFF COURSE 11,661 05:09
3 22048 SENECHAL Gilles 01:55:57 SEM 2 00:06:08 00:06:08 - 11,384 05:16
4 22154 LARIVIERE Maxime 01:58:58 SEM 3 00:09:09 00:09:09 - 11,096 05:24
5 22070 DOBBELS Morgan 01:59:39 SEM 4 00:09:50 00:09:50 GRAVELINES TRIATHLON 11,032 05:26
6 22193 MINARD Matthieu 02:00:16 V1M 2 00:10:27 00:07:04 AC OUTREAU 10,976 05:28
7 22203 COCATRIX LAURENT 02:00:47 V2M 1 00:10:58 00:00:00 10,929 05:29
8 22122 BUCAILLE Johnny 02:02:26 V1M 3 00:12:37 00:09:14 - 10,781 05:34
9 22214 BOULY GUILLAUME 02:02:30 SEM 5 00:12:41 00:12:41 10,776 05:34
10 22186 BESNIER Jerome 02:03:59 V1M 4 00:14:10 00:10:47 AC OUTREAU 10,647 05:38
11 22160 HARVIER Alexandre 02:05:36 V1M 5 00:15:47 00:12:24 GRAVELINES TRIATHLON 10,510 05:43
12 22138 DEVELLE Vivien 02:08:39 SEM 6 00:18:50 00:18:50 - 10,260 05:51
13 22172 VASSEUR Didier 02:09:52 V2M 2 00:20:03 00:09:05 GRAVELINES TRIATHLON 10,164 05:54
14 22152 LELONG Justine 02:10:05 SEF 1 00:20:16 00:00:00 - 10,147 05:55
15 22042 BONVOISIN Reynald 02:11:11 SEM 7 00:21:22 00:21:22 - 10,062 05:58
16 22191 FORTIN Christophe 02:11:29 SEM 8 00:21:40 00:21:40 AC OUTREAU 10,039 05:59
17 22063 COCHETEUX Emmanuel 02:11:30 V1M 6 00:21:41 00:18:18 Usl jogging 10,038 05:59
18 22204 CASTILLE GUY 02:11:34 V1M 7 00:21:45 00:18:22 10,033 05:59
19 22109 HERMEL Thierry 02:13:59 V1M 8 00:24:10 00:20:47 AS MARCK 9,852 06:05
20 22111 CARDON Caroline 02:14:40 SEF 2 00:24:51 00:04:35 - 9,802 06:07
21 22110 TERRIER Michael 02:14:40 SEM 9 00:24:51 00:24:51 GRAVELINES TRIATHLON 9,802 06:07
22 22142 MULLIEZ Amaury 02:15:21 V1M 9 00:25:32 00:22:09 - 9,752 06:09
23 22108 DUBOILLE Yohann 02:15:40 V1M 10 00:25:51 00:22:28 - 9,730 06:10
24 22128 DUQUENOY David 02:15:41 V1M 11 00:25:52 00:22:29 JOGGING CLUB LICQUOIS 9,729 06:10
25 22052 VERBREGUE Benoit 02:15:45 SEM 10 00:25:56 00:25:56 - 9,724 06:10
26 22149 HERBET Vincent 02:16:06 V1M 12 00:26:17 00:22:54 - 9,699 06:11
27 22188 DAMBREVILLE Benjamin 02:16:10 SEM 11 00:26:21 00:26:21 AC OUTREAU 9,694 06:11
28 22067 RIGAUX David 02:16:25 V1M 13 00:26:36 00:23:13 - 9,676 06:12
29 22076 NATANNI Steeven 02:16:58 SEM 12 00:27:09 00:27:09 - 9,637 06:14
30 22125 AOUADJ David 02:17:14 V1M 14 00:27:25 00:24:02 JOGGING CLUB LICQUOIS 9,619 06:14
31 22068 BENARD Bruno 02:17:23 V2M 3 00:27:34 00:16:36 - 9,608 06:15
32 22134 CHRISTIAENS Claire 02:17:26 SEF 3 00:27:37 00:07:21 - 9,605 06:15
33 22135 WALDHOFF Nicolas 02:17:27 SEM 13 00:27:38 00:27:38 - 9,603 06:15
34 22023 HENNUYER Florian 02:17:41 SEM 14 00:27:52 00:27:52 - 9,587 06:15
35 22151 TILLIER Arnaud 02:17:48 SEM 15 00:27:59 00:27:59 - 9,579 06:16
36 22127 DELEPIERRE Sylvain 02:17:53 V1M 15 00:28:04 00:24:41 JOGGING CLUB LICQUOIS 9,573 06:16
37 22167 ANNO Christophe 02:18:05 V1M 16 00:28:16 00:24:53 LE DRAPEAU 9,559 06:17
38 22126 COHEN-SOLAL Laurence 02:18:16 V2F 1 00:28:27 00:00:00 JOGGING CLUB LICQUOIS 9,547 06:17
39 22197 VERDIERE Sylvain 02:18:20 SEM 16 00:28:31 00:28:31 PATRIOTE CROSS DE GUINES 9,542 06:17
40 22185 LEGROS Mathieu 02:18:21 SEM 17 00:28:32 00:28:32 AS MARCK 9,541 06:17
41 22161 RAIMOND Geoffrey 02:18:52 SEM 18 00:29:03 00:29:03 - 9,506 06:19
42 22180 LAVOYE Loïc 02:18:54 SEM 19 00:29:05 00:29:05 - 9,503 06:19
43 22131 HADRI Sebastien 02:19:33 SEM 20 00:29:44 00:29:44 FOULEES LOONOISES 9,459 06:21
44 22162 CARON Charles 02:19:45 SEM 21 00:29:56 00:29:56 - 9,445 06:21
45 22049 VENRIES Sandrine 02:19:52 V1F 1 00:30:03 00:00:00 Stade longuenessois 9,438 06:21
46 22062 HURTREL Clemence 02:19:57 SEF 4 00:30:08 00:09:52 Longuenesse nature aventure 9,432 06:22
47 22043 BUFFET Pierre 02:20:06 SEM 22 00:30:17 00:30:17 - 9,422 06:22
48 22091 BOURGAIN Guillaume 02:20:12 V1M 17 00:30:23 00:27:00 - 9,415 06:22
49 22112 BOUIN Bernard 02:21:49 V1M 18 00:32:00 00:28:37 GRAVELINES TRIATHLON 9,308 06:27
50 22187 CARON Olivier 02:22:53 SEM 23 00:33:04 00:33:04 AC OUTREAU 9,238 06:30
51 22171 HOURDEQUIN Romain 02:22:54 SEM 24 00:33:05 00:33:05 - 9,237 06:30
52 22192 DAUTREVAUX David 02:23:32 SEM 25 00:33:43 00:33:43 AC OUTREAU 9,196 06:31
53 22211 MEENS PHILIBERT 02:24:02 SEM 26 00:34:13 00:34:13 9,165 06:33
54 22215 DELATTAIGNANT ARNAUD 02:24:22 V1M 19 00:34:33 00:31:10 - 9,143 06:34
55 22099 FAUCOEUR FRANCKE 02:24:23 V1M 20 00:34:34 00:31:11 - 9,142 06:34
56 22032 ELLART David 02:24:27 SEM 27 00:34:38 00:34:38 - 9,138 06:34
57 22095 DEZEGUE Fabien 02:25:08 SEM 28 00:35:19 00:35:19 - 9,095 06:36
58 22034 BRIDAULT Jean francois 02:25:46 SEM 29 00:35:57 00:35:57 - 9,056 06:38
59 22044 BUFFET Martin 02:25:46 SEM 30 00:35:57 00:35:57 - 9,056 06:38
60 22075 BOMY Noémie 02:25:52 SEF 5 00:36:03 00:15:47 BLANC NEZ TRIATHLON 9,049 06:38
61 22129 EVRARD Denis 02:26:50 V1M 21 00:37:01 00:33:38 JOGGING CLUB LICQUOIS 8,990 06:40
62 22002 DUVILLARD Damien 02:26:50 SEM 31 00:37:01 00:37:01 AC LA CAPELLE 8,990 06:40
63 22092 WILLOCQ Valentin 02:26:57 SEM 32 00:37:08 00:37:08 PATRIOTE CROSS DE GUINES 8,983 06:41
64 22165 TEMPERVILLE ROLAND-XAVIER 02:26:59 V1M 22 00:37:10 00:33:47 Azdp running 8,981 06:41
65 22015 FAIT Jonathan 02:27:02 SEM 33 00:37:13 00:37:13 SO CALAIS 8,978 06:41
66 22045 LEJEUNE Sandrine 02:27:08 V1F 2 00:37:19 00:07:16 Usd athletisme 8,971 06:41
67 22119 JACOB Anne 02:27:08 V1F 3 00:37:19 00:07:16 ARCELOR 8,971 06:41
68 22071 BLAEVOET Olivier 02:27:08 V1M 23 00:37:19 00:33:56 - 8,971 06:41
69 22083 NOYELLE Jordan 02:27:15 SEM 34 00:37:26 00:37:26 - 8,964 06:42
70 22014 MONTANARI Eric 02:27:18 V2M 4 00:37:29 00:26:31 - 8,961 06:42
71 22166 DUBUIS Nathalie 02:27:51 V1F 4 00:38:02 00:07:59 SO CALAIS 8,928 06:43
72 22190 FERNAGUT Sandrine 02:27:57 SEF 6 00:38:08 00:17:52 AC OUTREAU 8,922 06:44
73 22057 MAYER Simon 02:28:29 SEM 35 00:38:40 00:38:40 - 8,890 06:45
74 22178 LEMAITRE Fabien 02:28:29 SEM 36 00:38:40 00:38:40 - 8,890 06:45
75 22157 ACTHERGAL Florent 02:29:04 V2M 5 00:39:15 00:28:17 - 8,855 06:47
76 22207 OUDART BRUNO 02:29:08 V1M 24 00:39:19 00:35:56 LEFFRINCKOUCKE 8,851 06:47
77 22206 RYSPERT MALIKA 02:29:08 V1F 5 00:39:19 00:09:16 8,851 06:47
78 22175 DEWEPPE Samuel 02:29:47 SEM 37 00:39:58 00:39:58 - 8,813 06:48
79 22133 GAMBLIN Virginie 02:30:17 SEF 7 00:40:28 00:20:12 FOULEES LOONOISES 8,783 06:50
80 22148 DEZÉCACHE Marc andré 02:30:47 SEM 38 00:40:58 00:40:58 - 8,754 06:51
81 22059 BOURGAIN David 02:30:50 V1M 25 00:41:01 00:37:38 - 8,751 06:51
82 22114 DOYER Eric 02:31:23 V1M 26 00:41:34 00:38:11 AS MARCK 8,720 06:53
83 22118 CNOCKAERT Olivier 02:31:43 V1M 27 00:41:54 00:38:31 - 8,700 06:54
84 22074 BOULY Sandra 02:32:03 SEF 8 00:42:14 00:21:58 - 8,681 06:55
85 22170 MONTERO Raphael 02:33:09 SEM 39 00:43:20 00:43:20 - 8,619 06:58
86 22039 FOURNIER Lise 02:33:23 V1F 6 00:43:34 00:13:31 Usl trail leffrinckoucke 8,606 06:58
87 22022 ALLARD Elodie 02:33:23 SEF 9 00:43:34 00:23:18 - 8,606 06:58
88 22210 BOULANGER JULIEN 02:33:24 V1M 28 00:43:35 00:40:12 8,605 06:58
89 22040 HENNEGRAEVE Nicolas 02:33:24 V1M 29 00:43:35 00:40:12 Usl trail leffrinckoucke 8,605 06:58
90 22053 HOCHART Laurent 02:34:05 V1M 30 00:44:16 00:40:53 - 8,567 07:00
91 22011 BOSQUET Jerome 02:34:39 SEM 40 00:44:50 00:44:50 - 8,535 07:02
92 22177 BAUDHUIN Mickael 02:35:18 V1M 31 00:45:29 00:42:06 - 8,500 07:04
93 22176 MORMENTYN Gregory 02:35:19 V1M 32 00:45:30 00:42:07 - 8,499 07:04
94 22156 LEVILLAIN Baptiste 02:35:36 SEM 41 00:45:47 00:45:47 - 8,483 07:04
95 22155 PERILLAUD Laura 02:35:37 SEF 10 00:45:48 00:25:32 Lille triathlon 8,482 07:04
96 22073 PEYROT Alexandre 02:35:47 SEM 42 00:45:58 00:45:58 - 8,473 07:05
97 22089 ROCK Geoffrey 02:35:49 SEM 43 00:46:00 00:46:00 - 8,471 07:05
98 22027 RÉGNIER Christine 02:35:52 V2F 2 00:46:03 00:17:36 AC LA CAPELLE 8,469 07:05
99 22195 PIENTON Cedric 02:35:57 SEM 44 00:46:08 00:46:08 AC OUTREAU 8,464 07:05
100 22094 BUTOR GRETELLE 02:36:12 V1F 7 00:46:23 00:16:20 Louch'angeles runners 8,451 07:06
101 22058 BRUNELLE Maxime 02:36:14 SEM 45 00:46:25 00:46:25 Rc alkatrail 8,449 07:06
102 22086 TELLIER Patricia 02:36:44 SEF 11 00:46:55 00:26:39 - 8,422 07:07
103 22054 LEFORT Sylvain 02:37:42 SEM 46 00:47:53 00:47:53 - 8,370 07:10
104 22100 BERNIER Audrey 02:38:26 SEF 12 00:48:37 00:28:21 - 8,332 07:12
105 22201 SAMELOT Vincent 02:38:47 SEM 47 00:48:58 00:48:58 PATRIOTE CROSS DE GUINES 8,313 07:13
106 22194 NAVET Sebastien 02:38:58 V1M 33 00:49:09 00:45:46 AC OUTREAU 8,304 07:14
107 22030 VAN EENOOGHE Sylvie 02:39:00 V1F 8 00:49:11 00:19:08 SO CALAIS 8,302 07:14
108 22018 CARNEAUX Maximilien 02:40:00 SEM 48 00:50:11 00:50:11 - 8,250 07:16
109 22120 SAUTOT olivier 02:41:16 V2M 6 00:51:27 00:40:29 ARCELOR 8,185 07:20
110 22079 MATRAT Caroline 02:41:31 V1F 9 00:51:42 00:21:39 SO CALAIS 8,173 07:20
111 22061 DEMISELLE Valérie 02:41:43 V1F 10 00:51:54 00:21:51 - 8,162 07:21
112 22213 ALLAERT CLAUDE 02:41:43 V2M 7 00:51:54 00:40:56 TEAM OFF COURSE 8,162 07:21
113 22164 MISSENE Laurent 02:41:47 SEM 49 00:51:58 00:51:58 - 8,159 07:21
114 22029 BEWERSDORF Jessica 02:41:48 V1F 11 00:51:59 00:21:56 - 8,158 07:21
115 22037 DEHAESE Rémi 02:41:48 SEM 50 00:51:59 00:51:59 - 8,158 07:21
116 22205 CHRETIEN FABIEN 02:42:00 SEM 51 00:52:11 00:52:11 8,148 07:22
117 22047 NOTERDAME Alice 02:42:01 SEF 13 00:52:12 00:31:56 - 8,147 07:22
118 22143 BOTTELDOORN Stephane 02:42:11 V2M 8 00:52:22 00:41:24 Jcpmf lessines 8,139 07:22
119 22019 LONGUET Caroline 02:42:32 V1F 12 00:52:43 00:22:40 Stade longuenessois 8,121 07:23
120 22001 GOUILLART Jérémy 02:42:39 SEM 52 00:52:50 00:52:50 - 8,116 07:24
121 22005 DULOT Pascaline 02:43:26 V1F 13 00:53:37 00:23:34 - 8,077 07:26
122 22006 DULOT Eric 02:43:26 V2M 9 00:53:37 00:42:39 - 8,077 07:26
123 22038 RYCKEMBUSCH Jeremy 02:43:28 SEM 53 00:53:39 00:53:39 - 8,075 07:26
124 22139 SMECKAERT Philippe 02:43:37 V1M 34 00:53:48 00:50:25 - 8,068 07:26
125 22147 ROSA Stephane 02:43:51 V2M 10 00:54:02 00:43:04 Tl59 8,056 07:27
126 22093 CONRATTE Marine 02:44:01 SEF 14 00:54:12 00:33:56 - 8,048 07:27
127 22069 DURIEZ Damien 02:44:01 V1M 35 00:54:12 00:50:49 BLANC NEZ TRIATHLON 8,048 07:27
128 22117 EVRARD Carole 02:44:37 SEF 15 00:54:48 00:34:32 - 8,019 07:29
129 22169 SCHUPPE Clotaire 02:44:50 V2M 11 00:55:01 00:44:03 - 8,008 07:30
130 22130 LOYEZ Gery 02:45:19 V1M 36 00:55:30 00:52:07 - 7,985 07:31
131 22096 VASSEUR Stevens 02:45:19 SEM 54 00:55:30 00:55:30 - 7,985 07:31
132 22102 LEPRETRE Corentin 02:45:21 SEM 55 00:55:32 00:55:32 - 7,983 07:31
133 22003 GUILBERT Kevin 02:45:56 SEM 56 00:56:07 00:56:07 Tto 7,955 07:33
134 22046 VOLANT Sabrina 02:46:06 V1F 14 00:56:17 00:26:14 - 7,947 07:33
135 22158 CALMANT BEVERLEY 02:46:09 V1F 15 00:56:20 00:26:17 - 7,945 07:33
136 22199 GAVOIS Jimmy 02:46:20 V1M 37 00:56:31 00:53:08 PATRIOTE CROSS DE GUINES 7,936 07:34
137 22081 FONTAINE Thomas 02:47:16 JUM 1 00:57:27 00:00:00 - 7,892 07:36
138 22136 DEVULDER Michael 02:48:16 V1M 38 00:58:27 00:55:04 - 7,845 07:39
139 22105 BEELE Erwan 02:48:27 SEM 57 00:58:38 00:58:38 - 7,836 07:39
140 22085 THERY Vincent 02:48:41 V2M 12 00:58:52 00:47:54 - 7,825 07:40
141 22024 BOSQUET Sophie 02:48:51 SEF 16 00:59:02 00:38:46 Team trail audomarois 7,818 07:40
142 22200 DASILVA Anne-Sylvie 02:49:06 V2F 3 00:59:17 00:30:50 PATRIOTE CROSS DE GUINES 7,806 07:41
143 22050 HAU Eric 02:49:12 V2M 13 00:59:23 00:48:25 Usl jogging 7,801 07:41
144 22181 COUSYN Nathalie 02:49:25 V1F 16 00:59:36 00:29:33 Chit coureur 7,791 07:42
145 22168 BONO FRANCK 02:50:28 V1M 39 01:00:39 00:57:16 LE DRAPEAU 7,743 07:45
146 22209 CONSTANT ARNAUD 02:50:53 V1M 40 01:01:04 00:57:41 LEFFRINCKOUCKE 7,725 07:46
147 22041 SIGIEZ Fabien 02:52:13 V1M 41 01:02:24 00:59:01 TEAM TRAIL OPALE 7,665 07:50
148 22141 KUBICKI Jean claude 02:53:10 V2M 14 01:03:21 00:52:23 - 7,623 07:52
149 22010 SZULC Céline 02:54:17 SEF 17 01:04:28 00:44:12 - 7,574 07:55
150 22013 BOURLET Arnaud 02:54:53 V1M 42 01:05:04 01:01:41 - 7,548 07:57
151 22208 GOBERT SAMUEL 02:55:40 V1M 43 01:05:51 01:02:28 LEFFRINCKOUCKE 7,514 07:59
152 22123 DESMEDT Maxime 02:56:05 SEM 58 01:06:16 01:06:16 - 7,496 08:00
153 22124 DONOSO Celine 02:56:06 SEF 18 01:06:17 00:46:01 - 7,496 08:00
154 22173 TRIPLET Céline 02:56:52 SEF 19 01:07:03 00:46:47 - 7,463 08:02
155 22113 DEBOUT Yves 02:57:11 V2M 15 01:07:22 00:56:24 - 7,450 08:03
156 22101 GENS Xavier 02:57:17 SEM 59 01:07:28 01:07:28 - 7,446 08:03
157 22202 JOSSIEN Julie 02:57:55 SEF 20 01:08:06 00:47:50 PATRIOTE CROSS DE GUINES 7,419 08:05
158 22145 LANNOYE Quentin 02:58:10 SEM 60 01:08:21 01:08:21 - 7,409 08:06
159 22028 LOTTEN Carole 02:58:11 V1F 17 01:08:22 00:38:19 - 7,408 08:06
160 22116 VANASSCHE Vincent 02:58:50 V1M 44 01:09:01 01:05:38 - 7,381 08:08
161 22115 VUYLSTEKE Francois 02:58:50 V1M 45 01:09:01 01:05:38 - 7,381 08:08
162 22144 LANNOYE Bruno 02:59:28 V2M 16 01:09:39 00:58:41 - 7,355 08:09
163 22090 LAPOTRE Arthur 03:02:14 SEM 61 01:12:25 01:12:25 - 7,243 08:17
164 22080 NESVADBA Sophie 03:03:25 V1F 18 01:13:36 00:43:33 - 7,197 08:20
165 22088 LESSART Vanessa 03:03:59 V1F 19 01:14:10 00:44:07 - 7,175 08:22
166 22078 VERON Veronique 03:05:36 V1F 20 01:15:47 00:45:44 - 7,112 08:26
167 22106 PLESSIS Romain 03:06:53 SEM 62 01:17:04 01:17:04 - 7,063 08:30
168 22056 PEUPLE Franck 03:08:17 V1M 46 01:18:28 01:15:05 Usleffrinckoucke 7,011 08:33
169 22082 DALLERY Valérie 03:08:19 V2F 4 01:18:30 00:50:03 - 7,009 08:34
170 22072 JEAN-BAPTISTE Delphine 03:10:26 V1F 21 01:20:37 00:50:34 CAC CALOTERIE 6,932 08:39
171 22104 HUSTIN Charles 03:12:37 SEM 63 01:22:48 01:22:48 - 6,853 08:45
172 22103 CALLA Marion 03:12:37 SEF 21 01:22:48 01:02:32 - 6,853 08:45
173 22008 HOCHART Romain 03:13:49 SEM 64 01:24:00 01:24:00 - 6,811 08:49
174 22077 NATANNI Christophe 03:16:02 V2M 17 01:26:13 01:15:15 - 6,734 08:55
175 22021 MAILLARD Sandrine 03:21:34 V2F 5 01:31:45 01:03:18 Usl jooging leffrinckoucke 6,549 09:10
176 22140 SMECKAERT Véronique 03:21:34 V2F 6 01:31:45 01:03:18 - 6,549 09:10
177 22055 PEUPLE Nathalie 03:21:34 V1F 22 01:31:45 01:01:42 Usleffrinckoucke 6,549 09:10
178 22020 COUBEL Maryline 03:21:35 V2F 7 01:31:46 01:03:19 - 6,548 09:10
179 22150 LEJEUNE Sandrine 03:23:16 V1F 23 01:33:27 01:03:24 - 6,494 09:14
180 22174 VANHAEZEBROUCK Camille 03:51:55 SEF 22 02:02:06 01:41:50 - 5,692 10:32

 

Juillet 2018
Lun Mar Mer Jeu Ven Sam Dim
1
2
3
4
5
6
7
8
9
10
11
12
13
14
15
16
17
18
19
20
21
22
23
24
25
26
27
29
30
31